sensor_id;sensor_type;location;lat;lon;timestamp;P1;durP1;ratioP1;P2;durP2;ratioP2
57315;SDS011;43156;50.942;18.144;2023-04-01T00:08:22;4.40;;;2.90;;
57315;SDS011;43156;50.942;18.144;2023-04-01T00:10:49;3.20;;;2.60;;
57315;SDS011;43156;50.942;18.144;2023-04-01T00:15:46;4.00;;;2.80;;
57315;SDS011;43156;50.942;18.144;2023-04-01T00:18:12;3.70;;;2.70;;
57315;SDS011;43156;50.942;18.144;2023-04-01T00:20:45;3.80;;;2.50;;
57315;SDS011;43156;50.942;18.144;2023-04-01T00:23:12;3.80;;;2.60;;
57315;SDS011;43156;50.942;18.144;2023-04-01T00:25:38;3.40;;;2.60;;
57315;SDS011;43156;50.942;18.144;2023-04-01T00:28:06;4.10;;;2.70;;
57315;SDS011;43156;50.942;18.144;2023-04-01T00:30:32;3.30;;;2.60;;
57315;SDS011;43156;50.942;18.144;2023-04-01T00:32:58;3.70;;;3.00;;
57315;SDS011;43156;50.942;18.144;2023-04-01T00:35:24;3.30;;;2.70;;
57315;SDS011;43156;50.942;18.144;2023-04-01T00:37:53;4.70;;;3.00;;
57315;SDS011;43156;50.942;18.144;2023-04-01T00:40:30;4.00;;;2.80;;
57315;SDS011;43156;50.942;18.144;2023-04-01T00:43:00;3.60;;;2.50;;
57315;SDS011;43156;50.942;18.144;2023-04-01T00:45:34;3.60;;;2.80;;
57315;SDS011;43156;50.942;18.144;2023-04-01T00:48:06;3.50;;;2.90;;
57315;SDS011;43156;50.942;18.144;2023-04-01T00:50:34;4.60;;;2.90;;
57315;SDS011;43156;50.942;18.144;2023-04-01T00:53:03;3.60;;;2.80;;
57315;SDS011;43156;50.942;18.144;2023-04-01T00:55:32;3.40;;;2.80;;
57315;SDS011;43156;50.942;18.144;2023-04-01T00:58:01;3.30;;;2.70;;
57315;SDS011;43156;50.942;18.144;2023-04-01T01:00:29;4.10;;;2.70;;
57315;SDS011;43156;50.942;18.144;2023-04-01T01:02:56;3.30;;;2.90;;
57315;SDS011;43156;50.942;18.144;2023-04-01T01:05:30;3.20;;;2.80;;
57315;SDS011;43156;50.942;18.144;2023-04-01T01:08:31;4.90;;;3.00;;
57315;SDS011;43156;50.942;18.144;2023-04-01T01:11:03;3.80;;;3.00;;
57315;SDS011;43156;50.942;18.144;2023-04-01T01:13:44;4.10;;;3.10;;
57315;SDS011;43156;50.942;18.144;2023-04-01T01:16:27;3.90;;;2.80;;
57315;SDS011;43156;50.942;18.144;2023-04-01T01:19:04;3.80;;;2.80;;
57315;SDS011;43156;50.942;18.144;2023-04-01T01:24:39;4.20;;;2.90;;
57315;SDS011;43156;50.942;18.144;2023-04-01T01:27:17;3.30;;;2.60;;
57315;SDS011;43156;50.942;18.144;2023-04-01T01:35:22;5.20;;;2.90;;
57315;SDS011;43156;50.942;18.144;2023-04-01T01:37:51;4.00;;;3.30;;
57315;SDS011;43156;50.942;18.144;2023-04-01T01:40:20;4.30;;;3.10;;
57315;SDS011;43156;50.942;18.144;2023-04-01T01:42:48;3.90;;;2.80;;
57315;SDS011;43156;50.942;18.144;2023-04-01T01:45:16;3.80;;;2.70;;
57315;SDS011;43156;50.942;18.144;2023-04-01T01:47:45;4.40;;;3.00;;
57315;SDS011;43156;50.942;18.144;2023-04-01T01:50:12;5.40;;;3.10;;
57315;SDS011;43156;50.942;18.144;2023-04-01T01:52:38;3.90;;;2.80;;
57315;SDS011;43156;50.942;18.144;2023-04-01T01:55:24;3.80;;;2.80;;
57315;SDS011;43156;50.942;18.144;2023-04-01T01:57:55;3.80;;;2.70;;
57315;SDS011;43156;50.942;18.144;2023-04-01T02:00:24;4.10;;;2.90;;
57315;SDS011;43156;50.942;18.144;2023-04-01T02:02:51;3.40;;;2.90;;
57315;SDS011;43156;50.942;18.144;2023-04-01T02:05:19;3.80;;;3.10;;
57315;SDS011;43156;50.942;18.144;2023-04-01T02:07:55;4.20;;;3.20;;
57315;SDS011;43156;50.942;18.144;2023-04-01T02:10:35;5.20;;;2.80;;
57315;SDS011;43156;50.942;18.144;2023-04-01T02:13:06;3.90;;;2.70;;
57315;SDS011;43156;50.942;18.144;2023-04-01T02:15:37;5.30;;;2.70;;
57315;SDS011;43156;50.942;18.144;2023-04-01T02:18:10;3.40;;;2.40;;
57315;SDS011;43156;50.942;18.144;2023-04-01T02:20:36;3.30;;;2.60;;
57315;SDS011;43156;50.942;18.144;2023-04-01T02:23:02;3.60;;;2.90;;
57315;SDS011;43156;50.942;18.144;2023-04-01T02:25:30;4.00;;;2.80;;
57315;SDS011;43156;50.942;18.144;2023-04-01T02:28:00;4.30;;;3.10;;
57315;SDS011;43156;50.942;18.144;2023-04-01T02:30:29;4.10;;;2.60;;
57315;SDS011;43156;50.942;18.144;2023-04-01T02:32:57;3.90;;;2.60;;
57315;SDS011;43156;50.942;18.144;2023-04-01T02:35:24;3.40;;;2.70;;
57315;SDS011;43156;50.942;18.144;2023-04-01T02:37:51;3.20;;;2.80;;
57315;SDS011;43156;50.942;18.144;2023-04-01T02:40:21;4.20;;;2.90;;
57315;SDS011;43156;50.942;18.144;2023-04-01T02:42:49;4.90;;;3.00;;
57315;SDS011;43156;50.942;18.144;2023-04-01T02:45:20;4.40;;;2.70;;
57315;SDS011;43156;50.942;18.144;2023-04-01T02:47:46;5.70;;;2.90;;
57315;SDS011;43156;50.942;18.144;2023-04-01T02:50:14;4.00;;;2.60;;
57315;SDS011;43156;50.942;18.144;2023-04-01T02:52:40;4.30;;;2.90;;
57315;SDS011;43156;50.942;18.144;2023-04-01T02:55:06;4.50;;;3.10;;
57315;SDS011;43156;50.942;18.144;2023-04-01T02:57:32;3.80;;;2.50;;
57315;SDS011;43156;50.942;18.144;2023-04-01T02:59:58;3.60;;;2.80;;
57315;SDS011;43156;50.942;18.144;2023-04-01T03:02:24;3.00;;;2.30;;
57315;SDS011;43156;50.942;18.144;2023-04-01T03:04:51;4.70;;;2.50;;
57315;SDS011;43156;50.942;18.144;2023-04-01T03:07:20;3.80;;;2.40;;
57315;SDS011;43156;50.942;18.144;2023-04-01T03:09:46;3.30;;;2.50;;
57315;SDS011;43156;50.942;18.144;2023-04-01T03:12:12;4.00;;;2.60;;
57315;SDS011;43156;50.942;18.144;2023-04-01T03:14:38;4.40;;;2.70;;
57315;SDS011;43156;50.942;18.144;2023-04-01T03:17:04;3.40;;;2.50;;
57315;SDS011;43156;50.942;18.144;2023-04-01T03:19:32;3.80;;;2.60;;
57315;SDS011;43156;50.942;18.144;2023-04-01T03:22:02;4.20;;;2.80;;
57315;SDS011;43156;50.942;18.144;2023-04-01T03:24:30;3.70;;;2.80;;
57315;SDS011;43156;50.942;18.144;2023-04-01T03:26:58;4.80;;;2.80;;
57315;SDS011;43156;50.942;18.144;2023-04-01T03:29:24;4.00;;;2.70;;
57315;SDS011;43156;50.942;18.144;2023-04-01T03:31:51;4.50;;;2.80;;
57315;SDS011;43156;50.942;18.144;2023-04-01T03:34:18;4.10;;;2.70;;
57315;SDS011;43156;50.942;18.144;2023-04-01T03:36:44;3.10;;;2.70;;
57315;SDS011;43156;50.942;18.144;2023-04-01T03:39:10;4.40;;;2.50;;
57315;SDS011;43156;50.942;18.144;2023-04-01T03:41:39;3.80;;;2.70;;
57315;SDS011;43156;50.942;18.144;2023-04-01T03:44:06;3.50;;;2.60;;
57315;SDS011;43156;50.942;18.144;2023-04-01T03:46:32;4.30;;;2.70;;
57315;SDS011;43156;50.942;18.144;2023-04-01T03:48:58;3.70;;;2.60;;
57315;SDS011;43156;50.942;18.144;2023-04-01T03:51:24;3.70;;;2.30;;
57315;SDS011;43156;50.942;18.144;2023-04-01T03:53:50;4.00;;;2.60;;
57315;SDS011;43156;50.942;18.144;2023-04-01T03:56:16;3.60;;;2.60;;
57315;SDS011;43156;50.942;18.144;2023-04-01T03:58:42;3.80;;;2.30;;
57315;SDS011;43156;50.942;18.144;2023-04-01T04:01:18;3.30;;;2.40;;
57315;SDS011;43156;50.942;18.144;2023-04-01T04:03:46;3.70;;;2.80;;
57315;SDS011;43156;50.942;18.144;2023-04-01T04:06:14;3.50;;;2.40;;
57315;SDS011;43156;50.942;18.144;2023-04-01T04:08:40;3.80;;;2.50;;
57315;SDS011;43156;50.942;18.144;2023-04-01T04:11:07;3.20;;;2.60;;
57315;SDS011;43156;50.942;18.144;2023-04-01T04:13:33;3.40;;;2.80;;
57315;SDS011;43156;50.942;18.144;2023-04-01T04:16:01;3.90;;;2.60;;
57315;SDS011;43156;50.942;18.144;2023-04-01T04:18:28;3.30;;;2.40;;
57315;SDS011;43156;50.942;18.144;2023-04-01T04:20:54;3.40;;;2.60;;
57315;SDS011;43156;50.942;18.144;2023-04-01T04:23:22;4.00;;;2.60;;
57315;SDS011;43156;50.942;18.144;2023-04-01T04:26:05;3.50;;;2.50;;
57315;SDS011;43156;50.942;18.144;2023-04-01T04:28:32;3.80;;;2.50;;
57315;SDS011;43156;50.942;18.144;2023-04-01T04:31:00;3.50;;;2.50;;
57315;SDS011;43156;50.942;18.144;2023-04-01T04:33:27;3.60;;;2.50;;
57315;SDS011;43156;50.942;18.144;2023-04-01T04:35:55;4.00;;;2.90;;
57315;SDS011;43156;50.942;18.144;2023-04-01T04:38:25;3.50;;;2.70;;
57315;SDS011;43156;50.942;18.144;2023-04-01T04:40:52;4.00;;;2.50;;
57315;SDS011;43156;50.942;18.144;2023-04-01T04:43:18;3.30;;;2.40;;
57315;SDS011;43156;50.942;18.144;2023-04-01T04:45:44;4.80;;;2.70;;
57315;SDS011;43156;50.942;18.144;2023-04-01T04:48:11;3.80;;;2.40;;
57315;SDS011;43156;50.942;18.144;2023-04-01T04:50:45;3.00;;;2.30;;
57315;SDS011;43156;50.942;18.144;2023-04-01T04:53:14;3.80;;;2.20;;
57315;SDS011;43156;50.942;18.144;2023-04-01T04:55:47;3.80;;;2.60;;
57315;SDS011;43156;50.942;18.144;2023-04-01T04:58:14;3.80;;;2.50;;
57315;SDS011;43156;50.942;18.144;2023-04-01T05:00:42;3.30;;;2.40;;
57315;SDS011;43156;50.942;18.144;2023-04-01T05:03:08;3.70;;;2.00;;
57315;SDS011;43156;50.942;18.144;2023-04-01T05:05:36;3.10;;;2.20;;
57315;SDS011;43156;50.942;18.144;2023-04-01T05:08:02;3.40;;;1.90;;
57315;SDS011;43156;50.942;18.144;2023-04-01T05:10:29;2.80;;;1.90;;
57315;SDS011;43156;50.942;18.144;2023-04-01T05:12:56;3.40;;;1.90;;
57315;SDS011;43156;50.942;18.144;2023-04-01T05:15:22;2.40;;;1.70;;
57315;SDS011;43156;50.942;18.144;2023-04-01T05:17:48;2.30;;;1.50;;
57315;SDS011;43156;50.942;18.144;2023-04-01T05:20:14;2.60;;;1.60;;
57315;SDS011;43156;50.942;18.144;2023-04-01T05:22:42;2.40;;;1.40;;
57315;SDS011;43156;50.942;18.144;2023-04-01T05:27:36;3.00;;;1.70;;
57315;SDS011;43156;50.942;18.144;2023-04-01T05:30:05;2.40;;;1.50;;
57315;SDS011;43156;50.942;18.144;2023-04-01T05:32:34;4.60;;;2.00;;
57315;SDS011;43156;50.942;18.144;2023-04-01T05:35:01;2.50;;;1.70;;
57315;SDS011;43156;50.942;18.144;2023-04-01T05:37:28;2.30;;;1.70;;
57315;SDS011;43156;50.942;18.144;2023-04-01T05:39:54;2.80;;;1.70;;
57315;SDS011;43156;50.942;18.144;2023-04-01T05:42:23;2.10;;;1.60;;
57315;SDS011;43156;50.942;18.144;2023-04-01T05:44:49;2.90;;;1.70;;
57315;SDS011;43156;50.942;18.144;2023-04-01T05:47:18;1.90;;;1.50;;
57315;SDS011;43156;50.942;18.144;2023-04-01T05:49:46;2.30;;;1.60;;
57315;SDS011;43156;50.942;18.144;2023-04-01T06:44:34;2.80;;;1.40;;
57315;SDS011;43156;50.942;18.144;2023-04-01T06:55:17;1.80;;;1.40;;
57315;SDS011;43156;50.942;18.144;2023-04-01T06:57:50;2.00;;;1.30;;
57315;SDS011;43156;50.942;18.144;2023-04-01T07:00:22;2.90;;;1.10;;
57315;SDS011;43156;50.942;18.144;2023-04-01T07:03:04;1.50;;;1.30;;
57315;SDS011;43156;50.942;18.144;2023-04-01T07:05:32;2.10;;;1.10;;
57315;SDS011;43156;50.942;18.144;2023-04-01T07:10:40;2.10;;;1.00;;
57315;SDS011;43156;50.942;18.144;2023-04-01T07:13:47;1.30;;;1.00;;
57315;SDS011;43156;50.942;18.144;2023-04-01T07:16:35;1.70;;;1.20;;
57315;SDS011;43156;50.942;18.144;2023-04-01T07:21:56;1.40;;;1.00;;
57315;SDS011;43156;50.942;18.144;2023-04-01T07:24:30;1.50;;;1.00;;
57315;SDS011;43156;50.942;18.144;2023-04-01T07:29:38;1.70;;;0.90;;
57315;SDS011;43156;50.942;18.144;2023-04-01T07:32:22;1.50;;;0.80;;
57315;SDS011;43156;50.942;18.144;2023-04-01T07:35:09;1.50;;;1.00;;
57315;SDS011;43156;50.942;18.144;2023-04-01T07:40:37;1.60;;;0.90;;
57315;SDS011;43156;50.942;18.144;2023-04-01T07:46:11;1.40;;;1.00;;
57315;SDS011;43156;50.942;18.144;2023-04-01T07:48:55;1.40;;;0.80;;
57315;SDS011;43156;50.942;18.144;2023-04-01T07:54:18;1.60;;;0.90;;
57315;SDS011;43156;50.942;18.144;2023-04-01T08:08:35;1.60;;;0.70;;
57315;SDS011;43156;50.942;18.144;2023-04-01T08:14:22;0.80;;;0.70;;
57315;SDS011;43156;50.942;18.144;2023-04-01T08:17:28;1.30;;;0.80;;
57315;SDS011;43156;50.942;18.144;2023-04-01T08:22:45;1.50;;;0.70;;
57315;SDS011;43156;50.942;18.144;2023-04-01T08:25:22;1.00;;;0.80;;
57315;SDS011;43156;50.942;18.144;2023-04-01T08:27:55;1.30;;;0.80;;
57315;SDS011;43156;50.942;18.144;2023-04-01T08:33:10;0.80;;;0.60;;
57315;SDS011;43156;50.942;18.144;2023-04-01T08:41:29;0.80;;;0.60;;
57315;SDS011;43156;50.942;18.144;2023-04-01T08:53:03;1.10;;;0.80;;
57315;SDS011;43156;50.942;18.144;2023-04-01T08:55:38;1.60;;;0.70;;
57315;SDS011;43156;50.942;18.144;2023-04-01T09:00:46;0.80;;;0.70;;
57315;SDS011;43156;50.942;18.144;2023-04-01T09:20:17;1.20;;;0.70;;
57315;SDS011;43156;50.942;18.144;2023-04-01T09:25:51;1.00;;;0.80;;
57315;SDS011;43156;50.942;18.144;2023-04-01T09:28:36;1.00;;;0.80;;
57315;SDS011;43156;50.942;18.144;2023-04-01T09:37:30;1.20;;;0.80;;
57315;SDS011;43156;50.942;18.144;2023-04-01T09:43:28;1.30;;;1.10;;
57315;SDS011;43156;50.942;18.144;2023-04-01T09:51:36;1.80;;;1.10;;
57315;SDS011;43156;50.942;18.144;2023-04-01T10:07:28;3.10;;;1.30;;
57315;SDS011;43156;50.942;18.144;2023-04-01T10:13:38;2.40;;;1.20;;
57315;SDS011;43156;50.942;18.144;2023-04-01T10:16:25;1.50;;;1.20;;
57315;SDS011;43156;50.942;18.144;2023-04-01T10:24:59;1.50;;;1.20;;
57315;SDS011;43156;50.942;18.144;2023-04-01T10:27:40;1.70;;;1.10;;
57315;SDS011;43156;50.942;18.144;2023-04-01T10:30:29;1.50;;;1.10;;
57315;SDS011;43156;50.942;18.144;2023-04-01T10:41:38;2.60;;;1.40;;
57315;SDS011;43156;50.942;18.144;2023-04-01T10:53:17;2.00;;;0.90;;
57315;SDS011;43156;50.942;18.144;2023-04-01T11:04:30;1.60;;;0.60;;
57315;SDS011;43156;50.942;18.144;2023-04-01T11:16:19;1.20;;;0.60;;
57315;SDS011;43156;50.942;18.144;2023-04-01T12:12:14;2.00;;;1.80;;
57315;SDS011;43156;50.942;18.144;2023-04-01T12:15:17;8.70;;;4.00;;
57315;SDS011;43156;50.942;18.144;2023-04-01T13:12:51;0.60;;;0.60;;
57315;SDS011;43156;50.942;18.144;2023-04-01T13:23:11;0.70;;;0.70;;
57315;SDS011;43156;50.942;18.144;2023-04-01T14:24:01;2.60;;;2.40;;
57315;SDS011;43156;50.942;18.144;2023-04-01T14:54:13;3.20;;;1.80;;
57315;SDS011;43156;50.942;18.144;2023-04-01T16:34:30;4.10;;;2.60;;
57315;SDS011;43156;50.942;18.144;2023-04-01T16:54:55;9.80;;;6.00;;
57315;SDS011;43156;50.942;18.144;2023-04-01T17:05:04;2.80;;;2.50;;
57315;SDS011;43156;50.942;18.144;2023-04-01T18:10:25;262.00;;;142.20;;
57315;SDS011;43156;50.942;18.144;2023-04-01T18:41:53;40.30;;;30.40;;
57315;SDS011;43156;50.942;18.144;2023-04-01T18:50:18;48.90;;;37.00;;
57315;SDS011;43156;50.942;18.144;2023-04-01T18:52:57;35.90;;;29.20;;
57315;SDS011;43156;50.942;18.144;2023-04-01T18:56:02;37.90;;;28.90;;
57315;SDS011;43156;50.942;18.144;2023-04-01T18:59:27;42.60;;;33.50;;
57315;SDS011;43156;50.942;18.144;2023-04-01T19:08:12;48.30;;;36.50;;
57315;SDS011;43156;50.942;18.144;2023-04-01T19:20:14;45.40;;;34.40;;
57315;SDS011;43156;50.942;18.144;2023-04-01T19:34:25;36.70;;;29.10;;
57315;SDS011;43156;50.942;18.144;2023-04-01T19:36:58;32.80;;;27.70;;
57315;SDS011;43156;50.942;18.144;2023-04-01T19:39:53;60.10;;;39.60;;
57315;SDS011;43156;50.942;18.144;2023-04-01T19:57:17;46.20;;;34.40;;
57315;SDS011;43156;50.942;18.144;2023-04-01T19:59:51;59.00;;;40.20;;
57315;SDS011;43156;50.942;18.144;2023-04-01T20:14:29;34.20;;;26.80;;
57315;SDS011;43156;50.942;18.144;2023-04-01T20:17:44;46.60;;;33.30;;
57315;SDS011;43156;50.942;18.144;2023-04-01T20:20:19;37.50;;;29.60;;
57315;SDS011;43156;50.942;18.144;2023-04-01T20:34:48;60.30;;;42.50;;
57315;SDS011;43156;50.942;18.144;2023-04-01T20:40:50;29.00;;;23.00;;
57315;SDS011;43156;50.942;18.144;2023-04-01T20:43:48;47.50;;;33.90;;
57315;SDS011;43156;50.942;18.144;2023-04-01T20:46:48;42.90;;;31.50;;
57315;SDS011;43156;50.942;18.144;2023-04-01T20:49:39;47.40;;;31.90;;
57315;SDS011;43156;50.942;18.144;2023-04-01T20:54:45;57.00;;;41.00;;
57315;SDS011;43156;50.942;18.144;2023-04-01T20:57:55;55.90;;;37.20;;
57315;SDS011;43156;50.942;18.144;2023-04-01T21:03:39;39.20;;;27.50;;
57315;SDS011;43156;50.942;18.144;2023-04-01T21:09:41;36.00;;;26.40;;
57315;SDS011;43156;50.942;18.144;2023-04-01T21:12:44;41.80;;;30.00;;
57315;SDS011;43156;50.942;18.144;2023-04-01T21:21:12;92.30;;;49.30;;
57315;SDS011;43156;50.942;18.144;2023-04-01T21:29:32;74.90;;;44.30;;
57315;SDS011;43156;50.942;18.144;2023-04-01T21:32:43;45.70;;;29.00;;
57315;SDS011;43156;50.942;18.144;2023-04-01T21:35:23;111.10;;;59.90;;
57315;SDS011;43156;50.942;18.144;2023-04-01T21:44:02;45.80;;;30.10;;
57315;SDS011;43156;50.942;18.144;2023-04-01T22:02:12;39.10;;;26.70;;
57315;SDS011;43156;50.942;18.144;2023-04-01T22:05:28;97.40;;;47.60;;
57315;SDS011;43156;50.942;18.144;2023-04-01T22:10:51;65.80;;;36.80;;
57315;SDS011;43156;50.942;18.144;2023-04-01T22:13:26;75.00;;;40.10;;
57315;SDS011;43156;50.942;18.144;2023-04-01T22:15:59;65.00;;;35.40;;
57315;SDS011;43156;50.942;18.144;2023-04-01T22:24:47;69.70;;;33.50;;
57315;SDS011;43156;50.942;18.144;2023-04-01T22:30:52;96.40;;;43.80;;
57315;SDS011;43156;50.942;18.144;2023-04-01T22:33:33;45.20;;;26.70;;
57315;SDS011;43156;50.942;18.144;2023-04-01T22:41:34;46.10;;;27.20;;
57315;SDS011;43156;50.942;18.144;2023-04-01T22:53:29;82.10;;;38.20;;
57315;SDS011;43156;50.942;18.144;2023-04-01T22:56:12;32.70;;;21.90;;
57315;SDS011;43156;50.942;18.144;2023-04-01T22:58:49;46.10;;;27.40;;
57315;SDS011;43156;50.942;18.144;2023-04-01T23:01:32;34.60;;;22.70;;
57315;SDS011;43156;50.942;18.144;2023-04-01T23:04:12;34.20;;;23.70;;
57315;SDS011;43156;50.942;18.144;2023-04-01T23:06:47;33.90;;;23.10;;
57315;SDS011;43156;50.942;18.144;2023-04-01T23:09:24;44.40;;;26.60;;
57315;SDS011;43156;50.942;18.144;2023-04-01T23:12:13;39.80;;;26.20;;
57315;SDS011;43156;50.942;18.144;2023-04-01T23:14:58;47.20;;;30.60;;
57315;SDS011;43156;50.942;18.144;2023-04-01T23:20:48;26.20;;;17.90;;
